Time;durP1;ratioP1;P1;durP2;ratioP2;P2;SDS_P1;SDS_P2;PMS_P1;PMS_P2;Temp;Humidity;BMP_temperature;BMP_pressure;BME280_temperature;BME280_humidity;BME280_pressure;Samples;Min_cycle;Max_cycle;Signal;HPM_P1;HPM_P2
2024/04/24 00:01:59;;;;;;;6.35;3.53;;;;;;;;;;5452525;26;20073;-81
2024/04/24 00:04:44;;;;;;;7.38;3.20;;;;;;;;;;5453038;26;20327;-80
2024/04/24 00:07:30;;;;;;;6.10;2.97;;;;;;;;;;5455946;26;20010;-80
2024/04/24 00:10:18;;;;;;;5.35;2.90;;;;;;;;;;5439794;26;20446;-80
2024/04/24 00:13:03;;;;;;;5.43;2.97;;;;;;;;;;5417312;26;20003;-80
2024/04/24 00:15:48;;;;;;;6.63;2.85;;;;;;;;;;5449005;26;20002;-80
2024/04/24 00:18:34;;;;;;;5.38;3.22;;;;;;;;;;5419540;26;20014;-81
2024/04/24 00:21:19;;;;;;;4.88;2.38;;;;;;;;;;5471893;26;20009;-81
2024/04/24 00:24:04;;;;;;;6.53;2.92;;;;;;;;;;5417091;26;20075;-82
2024/04/24 00:26:50;;;;;;;4.32;2.67;;;;;;;;;;5455788;26;20005;-81
2024/04/24 00:29:35;;;;;;;5.57;3.10;;;;;;;;;;5422019;26;20331;-83
2024/04/24 00:32:20;;;;;;;4.55;2.63;;;;;;;;;;5442430;26;20529;-83
2024/04/24 00:35:06;;;;;;;7.18;3.22;;;;;;;;;;5419462;26;20003;-81
2024/04/24 00:37:51;;;;;;;6.90;3.10;;;;;;;;;;5437212;26;19995;-80
2024/04/24 00:40:36;;;;;;;5.50;2.72;;;;;;;;;;5446820;26;20001;-80
2024/04/24 00:43:22;;;;;;;4.70;2.95;;;;;;;;;;5420425;26;19994;-81
2024/04/24 00:46:08;;;;;;;5.80;3.53;;;;;;;;;;5417781;26;19999;-81
2024/04/24 00:48:54;;;;;;;5.60;3.20;;;;;;;;;;5417764;26;20005;-81
2024/04/24 00:51:40;;;;;;;6.03;3.40;;;;;;;;;;5433974;26;19995;-81
2024/04/24 00:54:27;;;;;;;5.15;3.10;;;;;;;;;;5416610;26;19998;-80
2024/04/24 00:57:13;;;;;;;9.13;2.95;;;;;;;;;;5416830;26;19995;-80
2024/04/24 00:59:58;;;;;;;4.57;2.67;;;;;;;;;;5417060;26;20006;-80
2024/04/24 01:02:43;;;;;;;5.65;2.88;;;;;;;;;;5436891;26;20006;-79
2024/04/24 01:05:30;;;;;;;7.30;2.78;;;;;;;;;;5433245;26;19995;-80
2024/04/24 01:08:15;;;;;;;4.05;2.67;;;;;;;;;;5439639;26;20085;-80
2024/04/24 01:11:00;;;;;;;6.30;3.20;;;;;;;;;;5431710;26;20010;-80
2024/04/24 01:13:45;;;;;;;5.95;2.95;;;;;;;;;;5421387;26;20006;-81
2024/04/24 01:16:36;;;;;;;5.13;3.08;;;;;;;;;;5448844;26;20079;-80
2024/04/24 01:19:30;;;;;;;4.85;2.63;;;;;;;;;;5418406;26;21465;-81
2024/04/24 01:22:25;;;;;;;6.03;3.22;;;;;;;;;;5435248;26;20010;-80
2024/04/24 01:25:12;;;;;;;6.53;3.17;;;;;;;;;;5423900;26;20002;-81
2024/04/24 01:27:57;;;;;;;6.13;2.97;;;;;;;;;;5439226;26;20482;-80
2024/04/24 01:30:42;;;;;;;6.50;3.05;;;;;;;;;;5497838;25;20346;-80
2024/04/24 01:33:28;;;;;;;4.35;3.08;;;;;;;;;;5452448;26;20078;-80
2024/04/24 01:36:13;;;;;;;6.07;3.30;;;;;;;;;;5498927;25;20001;-80
2024/04/24 01:38:58;;;;;;;6.50;3.90;;;;;;;;;;5481930;26;20001;-81
2024/04/24 01:41:44;;;;;;;5.18;2.83;;;;;;;;;;5489932;26;19998;-80
2024/04/24 01:44:29;;;;;;;5.32;3.42;;;;;;;;;;5458573;26;20039;-80
2024/04/24 01:47:14;;;;;;;5.55;3.42;;;;;;;;;;5489269;25;19996;-79
2024/04/24 01:49:59;;;;;;;5.50;3.17;;;;;;;;;;5472155;25;19997;-81
2024/04/24 01:52:44;;;;;;;4.65;2.90;;;;;;;;;;5454741;26;20030;-81
2024/04/24 01:55:30;;;;;;;5.45;3.13;;;;;;;;;;5468411;25;20001;-81
2024/04/24 01:58:15;;;;;;;4.72;2.88;;;;;;;;;;5498837;26;20500;-82
2024/04/24 02:01:00;;;;;;;7.78;3.15;;;;;;;;;;5481421;26;20746;-82
2024/04/24 02:03:45;;;;;;;7.50;3.75;;;;;;;;;;5454935;26;19999;-82
2024/04/24 02:06:30;;;;;;;9.73;4.10;;;;;;;;;;5502640;26;19998;-81
2024/04/24 02:09:16;;;;;;;7.60;3.03;;;;;;;;;;5477900;26;19998;-83
2024/04/24 02:12:01;;;;;;;4.95;3.05;;;;;;;;;;5447201;25;20001;-81
2024/04/24 02:14:46;;;;;;;5.47;3.13;;;;;;;;;;5481077;26;20002;-81
2024/04/24 02:17:31;;;;;;;6.22;3.80;;;;;;;;;;5506194;25;20013;-81
2024/04/24 02:20:16;;;;;;;4.90;3.30;;;;;;;;;;5469826;25;20299;-80
2024/04/24 02:23:03;;;;;;;4.75;3.28;;;;;;;;;;5471025;26;20002;-80
2024/04/24 02:25:48;;;;;;;5.22;3.28;;;;;;;;;;5482267;25;20499;-80
2024/04/24 02:28:34;;;;;;;5.38;2.83;;;;;;;;;;5480627;26;19993;-80
2024/04/24 02:31:19;;;;;;;5.55;3.30;;;;;;;;;;5487260;26;20002;-80
2024/04/24 02:34:04;;;;;;;4.35;2.65;;;;;;;;;;5459289;26;20009;-81
2024/04/24 02:37:10;;;;;;;5.97;2.88;;;;;;;;;;5483188;26;20373;-82
2024/04/24 02:39:55;;;;;;;8.13;3.63;;;;;;;;;;5491718;26;20005;-79
2024/04/24 02:43:10;;;;;;;5.38;2.97;;;;;;;;;;5458925;26;20013;-79
2024/04/24 02:45:56;;;;;;;5.60;3.17;;;;;;;;;;5515382;26;20008;-80
2024/04/24 02:48:41;;;;;;;5.05;3.38;;;;;;;;;;5475978;26;20001;-80
2024/04/24 02:51:26;;;;;;;8.32;3.13;;;;;;;;;;5467706;26;20006;-81
2024/04/24 02:54:11;;;;;;;6.72;3.65;;;;;;;;;;5467265;26;20429;-82
2024/04/24 02:56:56;;;;;;;5.80;3.30;;;;;;;;;;5483956;26;20443;-81
2024/04/24 02:59:42;;;;;;;5.13;3.25;;;;;;;;;;5487150;25;19994;-80
2024/04/24 03:02:27;;;;;;;6.03;3.50;;;;;;;;;;5487952;26;20050;-82
2024/04/24 03:05:12;;;;;;;5.68;3.00;;;;;;;;;;5456372;26;20073;-82
2024/04/24 03:07:57;;;;;;;5.65;3.63;;;;;;;;;;5471448;26;20002;-81
2024/04/24 03:10:43;;;;;;;6.22;3.20;;;;;;;;;;5464795;26;20002;-83
2024/04/24 03:13:28;;;;;;;7.82;3.55;;;;;;;;;;5480310;26;20068;-82
2024/04/24 03:16:13;;;;;;;5.18;3.58;;;;;;;;;;5488970;26;20074;-82
2024/04/24 03:18:58;;;;;;;5.32;3.40;;;;;;;;;;5455088;26;20002;-81
2024/04/24 03:21:43;;;;;;;7.00;4.03;;;;;;;;;;5456725;26;20423;-81
2024/04/24 03:24:29;;;;;;;5.55;2.80;;;;;;;;;;5454198;26;20022;-80
2024/04/24 03:27:14;;;;;;;7.28;3.80;;;;;;;;;;5479426;26;20486;-80
2024/04/24 03:29:59;;;;;;;7.03;3.88;;;;;;;;;;5452087;26;20021;-80
2024/04/24 03:32:46;;;;;;;5.35;3.20;;;;;;;;;;5458616;26;19998;-80
2024/04/24 03:35:31;;;;;;;7.38;3.95;;;;;;;;;;5457299;26;19998;-80
2024/04/24 03:38:16;;;;;;;9.60;4.03;;;;;;;;;;5481039;26;19998;-82
2024/04/24 03:41:01;;;;;;;8.02;3.63;;;;;;;;;;5460650;26;20009;-80
2024/04/24 03:43:46;;;;;;;7.00;3.55;;;;;;;;;;5463596;26;20013;-80
2024/04/24 03:46:32;;;;;;;5.22;2.97;;;;;;;;;;5491382;26;20005;-80
2024/04/24 03:49:17;;;;;;;5.10;2.97;;;;;;;;;;5456325;26;20002;-80
2024/04/24 03:52:02;;;;;;;3.92;2.72;;;;;;;;;;5493491;26;20406;-80
2024/04/24 03:54:47;;;;;;;7.70;3.80;;;;;;;;;;5454268;26;20002;-80
2024/04/24 03:57:32;;;;;;;8.35;3.45;;;;;;;;;;5467828;26;19993;-79
2024/04/24 04:00:18;;;;;;;5.45;3.53;;;;;;;;;;5478560;26;20013;-79
2024/04/24 04:03:03;;;;;;;10.45;3.47;;;;;;;;;;5488087;26;20347;-79
2024/04/24 04:05:48;;;;;;;8.48;3.63;;;;;;;;;;5477704;26;20069;-79
2024/04/24 04:08:33;;;;;;;5.57;2.97;;;;;;;;;;5478080;26;20026;-78
2024/04/24 04:11:19;;;;;;;6.10;3.20;;;;;;;;;;5481047;26;20061;-82
2024/04/24 04:14:04;;;;;;;5.75;3.33;;;;;;;;;;5453132;26;19998;-82
2024/04/24 04:16:49;;;;;;;5.15;3.03;;;;;;;;;;5480467;26;20002;-83
2024/04/24 04:19:34;;;;;;;9.43;3.88;;;;;;;;;;5456276;26;19999;-81
2024/04/24 04:22:19;;;;;;;9.40;3.83;;;;;;;;;;5485434;26;19991;-81
2024/04/24 04:25:05;;;;;;;6.72;3.83;;;;;;;;;;5453390;26;20328;-80
2024/04/24 04:27:50;;;;;;;5.88;3.85;;;;;;;;;;5470026;26;19998;-81
2024/04/24 04:30:35;;;;;;;5.55;3.17;;;;;;;;;;5492362;26;20306;-80
2024/04/24 04:33:20;;;;;;;5.50;3.40;;;;;;;;;;5482776;26;19993;-79
2024/04/24 04:36:06;;;;;;;7.65;4.80;;;;;;;;;;5459128;26;20097;-80
2024/04/24 04:38:51;;;;;;;7.47;4.05;;;;;;;;;;5453940;26;20013;-79
2024/04/24 04:41:36;;;;;;;6.63;4.30;;;;;;;;;;5458414;26;20002;-80
2024/04/24 04:44:21;;;;;;;8.80;4.30;;;;;;;;;;5460263;26;20002;-79
2024/04/24 04:47:06;;;;;;;9.82;4.30;;;;;;;;;;5466011;26;20013;-80
2024/04/24 04:49:52;;;;;;;7.18;4.25;;;;;;;;;;5462446;26;20074;-80
2024/04/24 04:52:37;;;;;;;8.05;4.70;;;;;;;;;;5453747;26;19994;-80
2024/04/24 04:55:22;;;;;;;6.65;3.45;;;;;;;;;;5479958;25;20154;-82
2024/04/24 04:58:07;;;;;;;9.98;4.60;;;;;;;;;;5477335;26;20005;-82
2024/04/24 05:00:52;;;;;;;8.95;4.60;;;;;;;;;;5472278;26;20017;-80
2024/04/24 05:03:38;;;;;;;8.63;4.07;;;;;;;;;;5488470;26;20062;-82
2024/04/24 05:06:23;;;;;;;6.15;4.15;;;;;;;;;;5482503;26;20762;-81
2024/04/24 05:09:09;;;;;;;8.07;4.85;;;;;;;;;;5478659;26;20012;-80
2024/04/24 05:11:54;;;;;;;7.88;4.72;;;;;;;;;;5477900;26;20002;-79
2024/04/24 05:14:40;;;;;;;7.18;4.93;;;;;;;;;;5484805;26;19997;-79
2024/04/24 05:17:25;;;;;;;10.95;4.13;;;;;;;;;;5484080;26;20328;-82
2024/04/24 05:20:10;;;;;;;8.65;4.78;;;;;;;;;;5497254;26;20074;-82
2024/04/24 05:23:00;;;;;;;9.23;4.43;;;;;;;;;;5486595;26;20030;-83
2024/04/24 05:25:55;;;;;;;;;;;;;;;;;;5488431;26;20000;-83
2024/04/24 05:31:44;;;;;;;7.28;4.50;;;;;;;;;;5489632;26;20002;-82
2024/04/24 05:34:30;;;;;;;9.25;4.68;;;;;;;;;;5483897;26;20336;-84
2024/04/24 05:37:15;;;;;;;6.57;4.57;;;;;;;;;;5474506;26;19998;-80
2024/04/24 05:40:00;;;;;;;9.27;4.80;;;;;;;;;;5489914;26;20002;-84
2024/04/24 05:42:46;;;;;;;10.65;5.20;;;;;;;;;;5485511;26;20387;-84
2024/04/24 05:45:31;;;;;;;8.07;4.25;;;;;;;;;;5466166;26;20333;-83
2024/04/24 05:48:16;;;;;;;8.05;4.43;;;;;;;;;;5472784;26;20489;-83
2024/04/24 05:51:01;;;;;;;6.15;3.95;;;;;;;;;;5455638;26;20006;-83
2024/04/24 05:53:46;;;;;;;7.35;4.45;;;;;;;;;;5451664;26;20802;-84
2024/04/24 05:56:32;;;;;;;9.70;5.35;;;;;;;;;;5469822;26;20008;-83
2024/04/24 05:59:17;;;;;;;9.93;5.10;;;;;;;;;;5456866;26;20012;-83
2024/04/24 06:02:02;;;;;;;7.63;4.47;;;;;;;;;;5457594;26;20479;-82
2024/04/24 06:04:47;;;;;;;6.93;4.43;;;;;;;;;;5499127;26;20468;-82
2024/04/24 06:07:32;;;;;;;8.23;5.10;;;;;;;;;;5471685;26;19994;-83
2024/04/24 06:10:18;;;;;;;11.40;5.30;;;;;;;;;;5426935;26;19994;-82
2024/04/24 06:13:03;;;;;;;9.27;4.65;;;;;;;;;;5430541;26;20044;-83
2024/04/24 06:15:48;;;;;;;9.05;4.68;;;;;;;;;;5451701;26;19998;-82
2024/04/24 06:18:34;;;;;;;7.82;4.50;;;;;;;;;;5463714;26;20001;-84
2024/04/24 06:21:19;;;;;;;8.40;4.35;;;;;;;;;;5466080;26;20016;-84
2024/04/24 06:24:04;;;;;;;7.65;4.38;;;;;;;;;;5463678;26;20013;-84
2024/04/24 06:26:50;;;;;;;8.73;4.75;;;;;;;;;;5482647;26;20045;-83
2024/04/24 06:29:35;;;;;;;8.00;4.80;;;;;;;;;;5451306;26;19994;-83
2024/04/24 06:32:20;;;;;;;7.82;4.72;;;;;;;;;;5451964;26;19998;-85
2024/04/24 06:35:06;;;;;;;9.55;5.07;;;;;;;;;;5466688;26;20008;-84
2024/04/24 06:37:53;;;;;;;12.80;5.20;;;;;;;;;;5477504;26;19997;-84
2024/04/24 06:40:38;;;;;;;11.73;5.25;;;;;;;;;;5455833;26;20021;-84
2024/04/24 06:43:23;;;;;;;12.27;6.18;;;;;;;;;;5453779;26;20333;-85
2024/04/24 06:46:08;;;;;;;9.15;5.32;;;;;;;;;;5451632;26;20002;-84
2024/04/24 06:48:54;;;;;;;11.98;5.45;;;;;;;;;;5460291;26;20700;-84
2024/04/24 06:51:40;;;;;;;8.57;4.78;;;;;;;;;;5451166;26;20034;-84
2024/04/24 06:54:25;;;;;;;8.50;5.85;;;;;;;;;;5458126;26;20356;-85
2024/04/24 06:57:11;;;;;;;9.38;5.68;;;;;;;;;;5503389;26;20070;-83
2024/04/24 06:59:56;;;;;;;9.90;5.95;;;;;;;;;;5448383;26;20005;-84
2024/04/24 07:02:42;;;;;;;9.05;5.70;;;;;;;;;;5457032;26;20407;-83
2024/04/24 07:05:27;;;;;;;9.77;5.93;;;;;;;;;;5480363;26;20349;-84
2024/04/24 07:08:12;;;;;;;8.77;6.22;;;;;;;;;;5476397;26;20665;-82
2024/04/24 07:14:21;;;;;;;13.32;6.28;;;;;;;;;;5455865;26;20001;-83
2024/04/24 07:17:07;;;;;;;11.20;6.00;;;;;;;;;;5455335;26;20014;-84
2024/04/24 07:19:52;;;;;;;10.95;6.40;;;;;;;;;;5473052;26;20016;-83
2024/04/24 07:22:37;;;;;;;10.57;7.25;;;;;;;;;;5454530;26;20051;-83
2024/04/24 07:25:23;;;;;;;11.45;7.30;;;;;;;;;;5466617;26;20021;-84
2024/04/24 07:28:08;;;;;;;9.65;6.50;;;;;;;;;;5467559;26;20349;-84
2024/04/24 07:30:53;;;;;;;10.38;6.85;;;;;;;;;;5454178;26;20794;-83
2024/04/24 07:33:40;;;;;;;12.93;6.60;;;;;;;;;;5480494;26;19998;-83
2024/04/24 07:36:25;;;;;;;10.05;6.95;;;;;;;;;;5471441;26;20026;-83
2024/04/24 07:39:11;;;;;;;11.52;7.28;;;;;;;;;;5479213;26;20022;-84
2024/04/24 07:41:56;;;;;;;10.75;7.05;;;;;;;;;;5453703;26;20041;-83
2024/04/24 07:44:43;;;;;;;13.25;7.00;;;;;;;;;;5460828;26;20073;-83
2024/04/24 07:47:28;;;;;;;12.48;7.38;;;;;;;;;;5457907;26;20045;-83
2024/04/24 07:50:13;;;;;;;10.60;6.85;;;;;;;;;;5471631;26;20001;-83
2024/04/24 07:52:58;;;;;;;9.82;6.93;;;;;;;;;;5453877;26;19998;-84
2024/04/24 07:55:44;;;;;;;12.43;6.38;;;;;;;;;;5478575;26;20017;-84
2024/04/24 07:58:32;;;;;;;12.02;7.18;;;;;;;;;;5471591;26;20009;-84
2024/04/24 08:01:22;;;;;;;11.57;6.53;;;;;;;;;;5453930;26;20410;-84
2024/04/24 08:04:07;;;;;;;10.82;6.55;;;;;;;;;;5453549;26;20235;-84
2024/04/24 08:06:52;;;;;;;11.57;7.20;;;;;;;;;;5463281;26;20005;-82
2024/04/24 08:09:37;;;;;;;10.15;6.93;;;;;;;;;;5464333;26;20013;-83
2024/04/24 08:12:23;;;;;;;12.02;6.93;;;;;;;;;;5453714;26;20540;-83
2024/04/24 08:15:08;;;;;;;9.23;6.47;;;;;;;;;;5480561;26;20016;-83
2024/04/24 08:17:53;;;;;;;11.75;7.47;;;;;;;;;;5468033;26;20505;-83
2024/04/24 08:20:39;;;;;;;10.65;6.75;;;;;;;;;;5473056;26;20002;-84
2024/04/24 08:23:24;;;;;;;11.45;6.72;;;;;;;;;;5461558;26;20012;-84
2024/04/24 08:26:09;;;;;;;11.38;7.25;;;;;;;;;;5468640;26;20423;-84
2024/04/24 08:28:54;;;;;;;10.85;6.07;;;;;;;;;;5455519;26;19994;-83
2024/04/24 08:31:40;;;;;;;12.20;6.93;;;;;;;;;;5453433;26;19998;-84
2024/04/24 08:34:25;;;;;;;11.88;6.28;;;;;;;;;;5453365;26;20066;-84
2024/04/24 08:37:10;;;;;;;10.07;6.88;;;;;;;;;;5461471;26;20211;-83
2024/04/24 08:39:55;;;;;;;9.82;6.65;;;;;;;;;;5453425;26;20005;-83
2024/04/24 08:42:40;;;;;;;10.50;6.78;;;;;;;;;;5453172;26;20002;-84
2024/04/24 08:45:26;;;;;;;11.45;6.10;;;;;;;;;;5479115;26;20558;-83
2024/04/24 08:48:12;;;;;;;12.02;6.20;;;;;;;;;;5508990;26;20013;-82
2024/04/24 08:51:00;;;;;;;8.60;5.80;;;;;;;;;;5470327;26;20001;-83
2024/04/24 08:53:50;;;;;;;11.15;6.72;;;;;;;;;;5465313;26;19999;-83
2024/04/24 08:56:42;;;;;;;9.63;6.35;;;;;;;;;;5471636;26;20002;-83
2024/04/24 08:59:28;;;;;;;9.73;6.07;;;;;;;;;;5456602;26;20010;-83
2024/04/24 09:02:14;;;;;;;10.32;6.43;;;;;;;;;;5453681;26;20013;-83
2024/04/24 09:05:00;;;;;;;11.55;6.50;;;;;;;;;;5452607;26;20002;-83
2024/04/24 09:07:46;;;;;;;11.82;7.97;;;;;;;;;;5486952;26;20012;-85
2024/04/24 09:10:31;;;;;;;12.10;5.75;;;;;;;;;;5453089;26;20464;-84
2024/04/24 09:13:17;;;;;;;9.73;6.80;;;;;;;;;;5478146;26;20440;-83
2024/04/24 09:16:03;;;;;;;11.13;6.65;;;;;;;;;;5458413;26;20069;-83
2024/04/24 09:18:57;;;;;;;10.00;6.28;;;;;;;;;;5452921;26;19998;-83
2024/04/24 09:21:43;;;;;;;11.50;6.13;;;;;;;;;;5472435;26;20001;-83
2024/04/24 09:24:29;;;;;;;9.10;5.88;;;;;;;;;;5452753;26;19998;-83
2024/04/24 09:27:15;;;;;;;11.18;6.85;;;;;;;;;;5479938;25;20013;-83
2024/04/24 09:30:00;;;;;;;12.68;7.43;;;;;;;;;;5452535;26;20008;-83
2024/04/24 09:32:46;;;;;;;11.88;6.93;;;;;;;;;;5451917;26;20080;-83
2024/04/24 09:35:31;;;;;;;11.43;7.30;;;;;;;;;;5452381;25;20357;-83
2024/04/24 09:38:17;;;;;;;9.68;7.18;;;;;;;;;;5481041;26;20005;-83
2024/04/24 09:41:02;;;;;;;12.27;6.95;;;;;;;;;;5452423;26;20016;-83
2024/04/24 09:43:48;;;;;;;10.77;7.32;;;;;;;;;;5451497;26;20045;-83
2024/04/24 09:46:34;;;;;;;11.60;6.95;;;;;;;;;;5462411;25;20001;-83
2024/04/24 09:49:22;;;;;;;10.38;6.80;;;;;;;;;;5448995;25;20078;-83
2024/04/24 09:52:12;;;;;;;10.57;7.10;;;;;;;;;;5484274;25;20120;-83
2024/04/24 09:54:57;;;;;;;11.13;6.82;;;;;;;;;;5452456;26;19998;-83
2024/04/24 09:57:44;;;;;;;12.70;7.40;;;;;;;;;;5479147;26;20010;-83
2024/04/24 10:00:32;;;;;;;12.30;7.50;;;;;;;;;;5452205;26;20032;-83
2024/04/24 10:03:18;;;;;;;10.65;7.03;;;;;;;;;;5469941;26;20394;-83
2024/04/24 10:06:05;;;;;;;10.75;6.43;;;;;;;;;;5457704;26;20002;-83
2024/04/24 10:08:52;;;;;;;15.85;7.75;;;;;;;;;;5459004;26;20002;-83
2024/04/24 10:11:40;;;;;;;11.73;7.85;;;;;;;;;;5461964;25;20071;-82
2024/04/24 10:14:27;;;;;;;10.40;7.53;;;;;;;;;;5466239;26;20002;-83
2024/04/24 10:17:13;;;;;;;10.15;7.13;;;;;;;;;;5462920;25;20958;-83
2024/04/24 10:19:59;;;;;;;12.57;7.40;;;;;;;;;;5435025;26;20397;-84
2024/04/24 10:22:44;;;;;;;12.50;7.00;;;;;;;;;;5464124;26;20026;-84
2024/04/24 10:25:29;;;;;;;12.00;6.78;;;;;;;;;;5451286;25;20010;-84
2024/04/24 10:28:17;;;;;;;9.40;6.35;;;;;;;;;;5469747;26;20099;-84
2024/04/24 10:31:03;;;;;;;10.00;6.38;;;;;;;;;;5451674;26;20543;-84
2024/04/24 10:33:49;;;;;;;11.00;7.05;;;;;;;;;;5426581;26;20002;-83
2024/04/24 10:36:34;;;;;;;10.32;6.30;;;;;;;;;;5451190;26;20006;-83
2024/04/24 10:39:20;;;;;;;5.82;3.80;;;;;;;;;;5452554;26;20066;-84
2024/04/24 10:42:05;;;;;;;5.82;3.72;;;;;;;;;;5454961;26;19998;-83
2024/04/24 10:44:50;;;;;;;5.13;3.72;;;;;;;;;;5464562;26;19998;-84
2024/04/24 10:47:36;;;;;;;6.63;4.07;;;;;;;;;;5463073;25;20455;-84
2024/04/24 10:50:24;;;;;;;7.13;4.05;;;;;;;;;;5467245;26;20007;-83
2024/04/24 10:53:12;;;;;;;7.75;3.83;;;;;;;;;;5457022;26;20359;-83
2024/04/24 10:56:02;;;;;;;6.40;3.60;;;;;;;;;;5460373;26;20095;-83
2024/04/24 10:58:52;;;;;;;4.15;3.17;;;;;;;;;;5496362;25;20011;-83
2024/04/24 11:01:39;;;;;;;5.63;3.78;;;;;;;;;;5488334;25;20008;-83
2024/04/24 11:04:25;;;;;;;6.88;3.03;;;;;;;;;;5464860;26;20002;-83
2024/04/24 11:07:13;;;;;;;6.07;4.03;;;;;;;;;;5469206;26;20016;-83
2024/04/24 11:09:59;;;;;;;5.72;3.75;;;;;;;;;;5454067;26;20002;-83
2024/04/24 11:12:44;;;;;;;4.45;3.20;;;;;;;;;;5453998;26;20875;-83
2024/04/24 11:15:29;;;;;;;8.45;3.17;;;;;;;;;;5454207;26;19998;-83
2024/04/24 11:18:15;;;;;;;4.38;3.10;;;;;;;;;;5463226;25;20688;-82
2024/04/24 11:21:00;;;;;;;5.43;3.25;;;;;;;;;;5453727;26;20009;-82
2024/04/24 11:23:46;;;;;;;5.63;3.40;;;;;;;;;;5475167;25;20010;-82
2024/04/24 11:26:32;;;;;;;5.25;3.38;;;;;;;;;;5469234;26;20001;-83
2024/04/24 11:29:17;;;;;;;4.50;3.17;;;;;;;;;;5481723;25;19993;-82
2024/04/24 11:32:02;;;;;;;4.70;3.17;;;;;;;;;;5465333;26;20074;-82
2024/04/24 11:34:48;;;;;;;6.80;3.47;;;;;;;;;;5454226;26;20615;-83
2024/04/24 11:37:34;;;;;;;5.65;3.13;;;;;;;;;;5480406;26;20619;-82
2024/04/24 11:40:19;;;;;;;6.00;3.50;;;;;;;;;;5477925;26;20002;-83
2024/04/24 11:43:04;;;;;;;4.80;3.08;;;;;;;;;;5454389;26;20042;-84
2024/04/24 11:45:50;;;;;;;4.30;2.72;;;;;;;;;;5453771;26;20031;-84
2024/04/24 11:48:38;;;;;;;5.93;3.55;;;;;;;;;;5467451;25;20001;-83
2024/04/24 11:51:24;;;;;;;4.97;3.10;;;;;;;;;;5452338;26;20030;-84
2024/04/24 11:54:12;;;;;;;3.97;3.03;;;;;;;;;;5467198;26;20012;-84
2024/04/24 11:57:00;;;;;;;31.17;10.50;;;;;;;;;;5474689;26;20359;-84
2024/04/24 11:59:46;;;;;;;29.80;8.20;;;;;;;;;;5479299;26;20035;-83
2024/04/24 12:02:32;;;;;;;4.00;3.00;;;;;;;;;;5453461;26;20006;-84
2024/04/24 12:05:17;;;;;;;4.70;3.08;;;;;;;;;;5453350;26;20336;-83
2024/04/24 12:08:03;;;;;;;4.45;2.90;;;;;;;;;;5479070;26;20001;-83
2024/04/24 12:10:54;;;;;;;7.28;2.70;;;;;;;;;;5471866;26;20394;-83
2024/04/24 12:13:39;;;;;;;5.05;2.67;;;;;;;;;;5452959;26;20009;-83
2024/04/24 12:16:24;;;;;;;3.67;3.00;;;;;;;;;;5448286;26;20013;-82
2024/04/24 12:19:11;;;;;;;5.10;3.20;;;;;;;;;;5464451;25;20070;-82
2024/04/24 12:21:56;;;;;;;4.55;3.40;;;;;;;;;;5457577;26;20062;-82
2024/04/24 12:24:41;;;;;;;6.13;3.17;;;;;;;;;;5489701;25;20001;-83
2024/04/24 12:27:27;;;;;;;4.80;3.08;;;;;;;;;;5473582;26;20002;-81
2024/04/24 12:30:12;;;;;;;5.60;3.00;;;;;;;;;;5453854;26;20020;-82
2024/04/24 12:32:57;;;;;;;3.85;2.83;;;;;;;;;;5453030;26;20071;-83
2024/04/24 12:35:42;;;;;;;5.57;2.95;;;;;;;;;;5456501;26;20002;-83
2024/04/24 12:38:28;;;;;;;5.30;3.15;;;;;;;;;;5453794;26;19998;-82
2024/04/24 12:41:13;;;;;;;7.47;3.28;;;;;;;;;;5452953;26;20398;-82
2024/04/24 12:43:58;;;;;;;4.18;2.63;;;;;;;;;;5452608;26;20155;-82
2024/04/24 12:46:43;;;;;;;5.55;3.15;;;;;;;;;;5462129;25;20008;-83
2024/04/24 12:49:28;;;;;;;3.83;2.80;;;;;;;;;;5453841;26;19998;-83
2024/04/24 12:52:14;;;;;;;6.03;3.10;;;;;;;;;;5484681;25;20033;-83
2024/04/24 12:54:59;;;;;;;4.22;3.03;;;;;;;;;;5470026;26;19994;-84
2024/04/24 12:57:44;;;;;;;6.50;3.55;;;;;;;;;;5481913;26;20321;-83
2024/04/24 13:00:29;;;;;;;4.78;2.72;;;;;;;;;;5453123;26;20010;-83
2024/04/24 13:03:15;;;;;;;3.88;2.67;;;;;;;;;;5474284;25;20323;-82
2024/04/24 13:06:00;;;;;;;5.13;2.85;;;;;;;;;;5466236;26;19998;-83
2024/04/24 13:08:45;;;;;;;5.15;2.83;;;;;;;;;;5452749;26;20240;-83
2024/04/24 13:11:30;;;;;;;4.82;3.22;;;;;;;;;;5459790;26;20075;-83
2024/04/24 13:14:15;;;;;;;4.15;3.20;;;;;;;;;;5452474;26;20340;-83
2024/04/24 13:17:01;;;;;;;3.75;2.97;;;;;;;;;;5452676;26;20080;-83
2024/04/24 13:19:46;;;;;;;5.32;2.72;;;;;;;;;;5460170;25;20012;-83
2024/04/24 13:22:31;;;;;;;4.93;3.42;;;;;;;;;;5452457;26;20041;-83
2024/04/24 13:25:17;;;;;;;4.75;3.55;;;;;;;;;;5461036;26;20238;-82
2024/04/24 13:28:04;;;;;;;4.85;3.33;;;;;;;;;;5441525;26;20003;-83
2024/04/24 13:30:50;;;;;;;6.13;3.80;;;;;;;;;;5442168;26;20070;-83
2024/04/24 13:33:35;;;;;;;5.82;3.55;;;;;;;;;;5474243;26;20030;-83
2024/04/24 13:36:20;;;;;;;6.20;3.22;;;;;;;;;;5441367;26;20033;-83
2024/04/24 13:39:05;;;;;;;7.40;4.18;;;;;;;;;;5466922;26;20457;-82
2024/04/24 13:41:50;;;;;;;5.43;3.38;;;;;;;;;;5449292;26;19998;-82
2024/04/24 13:44:36;;;;;;;5.00;3.20;;;;;;;;;;5441150;26;20003;-82
2024/04/24 13:47:21;;;;;;;5.07;3.05;;;;;;;;;;5441407;26;20026;-82
2024/04/24 13:50:09;;;;;;;4.20;2.63;;;;;;;;;;5462410;26;20433;-83
2024/04/24 13:52:55;;;;;;;3.00;2.22;;;;;;;;;;5420657;26;20010;-82
2024/04/24 13:55:40;;;;;;;2.25;1.83;;;;;;;;;;5460217;26;20003;-82
2024/04/24 13:58:25;;;;;;;1.58;1.40;;;;;;;;;;5459986;26;20003;-82
2024/04/24 14:01:11;;;;;;;2.50;1.83;;;;;;;;;;5443418;26;20007;-83
2024/04/24 14:03:56;;;;;;;1.85;1.52;;;;;;;;;;5440707;26;20084;-84
2024/04/24 14:06:41;;;;;;;3.45;1.95;;;;;;;;;;5440672;26;20002;-84
2024/04/24 14:09:26;;;;;;;3.83;1.85;;;;;;;;;;5415627;26;20003;-83
2024/04/24 14:12:12;;;;;;;3.25;1.83;;;;;;;;;;5458102;26;19999;-84
2024/04/24 14:14:57;;;;;;;3.80;2.13;;;;;;;;;;5468039;26;20445;-83
2024/04/24 14:17:42;;;;;;;4.75;1.83;;;;;;;;;;5444065;26;20010;-83
2024/04/24 14:20:27;;;;;;;4.68;2.00;;;;;;;;;;5444582;26;20212;-83
2024/04/24 14:23:15;;;;;;;2.15;1.50;;;;;;;;;;5443778;26;20032;-82
2024/04/24 14:26:00;;;;;;;3.15;1.73;;;;;;;;;;5463888;26;20009;-83
2024/04/24 14:28:46;;;;;;;2.70;1.83;;;;;;;;;;5470566;26;20031;-83
2024/04/24 14:31:31;;;;;;;4.25;1.73;;;;;;;;;;5443782;26;20018;-83
2024/04/24 14:34:16;;;;;;;3.97;2.35;;;;;;;;;;5443762;26;20011;-84
2024/04/24 14:37:01;;;;;;;3.95;2.08;;;;;;;;;;5454752;26;20322;-84
2024/04/24 14:39:46;;;;;;;2.08;1.80;;;;;;;;;;5444200;26;19999;-84
2024/04/24 14:42:32;;;;;;;4.85;2.35;;;;;;;;;;5445363;26;20458;-84
2024/04/24 14:45:17;;;;;;;5.93;3.13;;;;;;;;;;5457957;26;20453;-83
2024/04/24 14:48:02;;;;;;;2.85;1.80;;;;;;;;;;5462241;26;20448;-84
2024/04/24 14:50:47;;;;;;;2.35;1.95;;;;;;;;;;5443979;26;20003;-82
2024/04/24 14:53:33;;;;;;;1.98;1.75;;;;;;;;;;5443139;26;20349;-82
2024/04/24 14:56:18;;;;;;;2.63;1.83;;;;;;;;;;5456871;26;20420;-82
2024/04/24 14:59:03;;;;;;;3.75;2.13;;;;;;;;;;5452291;26;20014;-82
2024/04/24 15:01:49;;;;;;;2.83;1.90;;;;;;;;;;5443739;26;20466;-83
2024/04/24 15:04:35;;;;;;;4.43;1.88;;;;;;;;;;5443173;26;20013;-83
2024/04/24 15:07:20;;;;;;;3.28;1.90;;;;;;;;;;5465442;26;19998;-82
2024/04/24 15:10:05;;;;;;;3.88;1.92;;;;;;;;;;5472996;26;20333;-83
2024/04/24 15:12:51;;;;;;;4.40;2.10;;;;;;;;;;5453343;26;19999;-83
2024/04/24 15:15:42;;;;;;;3.72;2.00;;;;;;;;;;5445189;26;20009;-84
2024/04/24 15:18:31;;;;;;;1.77;1.40;;;;;;;;;;5474606;26;20026;-84
2024/04/24 15:21:16;;;;;;;3.13;2.00;;;;;;;;;;5443044;26;20002;-85
2024/04/24 15:24:01;;;;;;;3.38;1.98;;;;;;;;;;5468586;26;20228;-84
2024/04/24 15:26:46;;;;;;;2.13;1.75;;;;;;;;;;5461567;26;20009;-85
2024/04/24 15:29:32;;;;;;;3.33;1.75;;;;;;;;;;5454207;26;20078;-83
2024/04/24 15:32:17;;;;;;;2.65;1.80;;;;;;;;;;5459803;26;20002;-85
2024/04/24 15:35:03;;;;;;;3.42;1.80;;;;;;;;;;5458316;26;20071;-84
2024/04/24 15:37:49;;;;;;;5.10;2.42;;;;;;;;;;5479706;26;20013;-82
2024/04/24 15:40:34;;;;;;;2.47;1.50;;;;;;;;;;5460244;26;20006;-84
2024/04/24 15:43:19;;;;;;;3.78;1.65;;;;;;;;;;5482072;26;19995;-83
2024/04/24 15:46:05;;;;;;;2.45;1.70;;;;;;;;;;5427362;26;20307;-84
2024/04/24 15:48:50;;;;;;;2.15;1.50;;;;;;;;;;5493337;26;20021;-83
2024/04/24 15:51:35;;;;;;;3.28;1.50;;;;;;;;;;5473410;26;20013;-83
2024/04/24 15:54:22;;;;;;;4.93;1.48;;;;;;;;;;5450730;26;19998;-84
2024/04/24 15:57:10;;;;;;;6.43;1.80;;;;;;;;;;5479684;26;20367;-82
2024/04/24 15:59:55;;;;;;;1.73;1.52;;;;;;;;;;5482223;26;19997;-83
2024/04/24 16:02:42;;;;;;;2.30;1.30;;;;;;;;;;5488017;26;20005;-82
2024/04/24 16:05:28;;;;;;;2.03;1.30;;;;;;;;;;5455559;26;19998;-81
2024/04/24 16:08:13;;;;;;;1.42;1.20;;;;;;;;;;5483024;26;19994;-82
2024/04/24 16:10:59;;;;;;;0.90;0.88;;;;;;;;;;5473705;26;19993;-82
2024/04/24 16:13:44;;;;;;;2.88;1.13;;;;;;;;;;5467639;26;20006;-83
2024/04/24 16:16:29;;;;;;;1.23;1.00;;;;;;;;;;5492133;26;20398;-82
2024/04/24 16:19:15;;;;;;;2.38;1.15;;;;;;;;;;5507240;26;20012;-83
2024/04/24 16:22:00;;;;;;;1.48;1.00;;;;;;;;;;5479044;26;20005;-85
2024/04/24 16:24:45;;;;;;;2.42;1.10;;;;;;;;;;5499796;26;20370;-85
2024/04/24 16:27:31;;;;;;;3.22;0.98;;;;;;;;;;5455809;26;20057;-85
2024/04/24 16:30:16;;;;;;;1.88;0.90;;;;;;;;;;5498808;26;19997;-84
2024/04/24 16:33:01;;;;;;;2.10;1.20;;;;;;;;;;5502728;26;20049;-85
2024/04/24 16:35:46;;;;;;;1.55;0.88;;;;;;;;;;5488455;26;19998;-85
2024/04/24 16:38:32;;;;;;;2.08;1.23;;;;;;;;;;5489682;26;20032;-85